Řízení letového provozu České republiky  
Aktualizace dat:  25.07.2014 12:57:17 UTC English version
   METEO Zobrazení stránky:  25.07.2014 12:59:02 UTC  
vysvětlivky
METAR EDDB 251250Z 09012KT 7000 -DZ BKN012 BKN024 20/18 Q1014 BECMG SCT015=
METAR EDDC 251250Z 22004KT 9999 FEW021 BKN066 19/16 Q1014 NOSIG=
METAR EDDE 251250Z 01006KT 9999 FEW015 BKN020 20/15 Q1014 NOSIG=
METAR EDDF 251250Z 01005KT 320V050 9999 FEW045CB 25/14 Q1012 NOSIG=
METAR EDDM 251250Z 15004KT 060V190 CAVOK 25/11 Q1013 NOSIG=
METAR EDDN 251250Z 28005KT 220V330 9999 SCT045 26/12 Q1013 NOSIG=
METAR EDDP 251250Z 26004KT 9999 VCTS BKN010 FEW016CB 20/18 Q1013 TEMPO 4500 TSRA BKN008=
METAR EDDT 251250Z 06010KT 9999 FEW020TCU BKN060 21/17 Q1014 NOSIG=
METAR EDQM 251250Z 28006KT 230V300 9999 FEW049 SCT061 24/11 Q1014=
METAR EPBY 251230Z 10004KT 070V140 CAVOK 20/16 Q1017 =
METAR EPGD 251230Z 07012KT 040V100 9999 FEW046 27/15 Q1018 =
METAR EPKK 251230Z 10005KT 9999 SCT026 25/17 Q1014 =
METAR EPKT 251230Z 11005KT 050V170 9999 SCT020 24/18 Q1015 =
METAR EPLL 251230Z 09005KT 9999 SCT019 21/19 Q1016 =
METAR EPPO 251230Z 13006KT 9999 SCT020CB 22/18 Q1015 =
METAR EPRZ 251230Z 10011KT 9999 BKN023TCU 24/18 Q1015 =
METAR EPWA 251230Z 12006KT 100V160 9999 -SHRA FEW046CB 22/16 Q1017 TEMPO 5000 SHRA=
METAR EPWR 251230Z 10006KT 9999 FEW013CB SCT026 22/19 Q1015 =
METAR LHBP 251230Z 31008KT 240V050 CAVOK 28/13 Q1013 NOSIG=
METAR LHSM 251215Z 09004KT 9999 SCT040TCU 27/17 Q1014 NOSIG=
METAR LKCV 251200Z VRB04KT 9999 BKN044 SCT200 26/14 Q1013 NOSIG=
METAR LKKB 251200Z 12003KT 050V210 9999 SCT036 24/13 Q1013 NOSIG =
METAR LKKU NIL
METAR LKKV 251230Z 28005KT 220V350 9999 SCT040 22/12 Q1014 RMK REG QNH 1010=
METAR LKLN 251200Z AUTO 33004KT 280V020 CAVOK 25/12 Q1013=
METAR LKMT 251230Z VRB03KT 9999 SCT043 25/15 Q1014 NOSIG RMK REG QNH 1010=
METAR LKNA 251200Z 16006KT 9999 SCT040TCU 24/13 Q1015 NOSIG=
METAR LKPD 251200Z VRB03KT 9999 FEW040 BKN210 25/13 Q1014 NOSIG =
METAR LKPR 251230Z 25005KT 200V340 CAVOK 25/12 Q1013 NOSIG RMK REG QNH 1010=
METAR LKTB 251230Z VRB02KT CAVOK 27/14 Q1013 NOSIG RMK REG QNH 1010=
METAR COR LKVO 251206Z VRB02KT 9999 FEW048 24/13 Q1014=
METAR LOWI 251250Z VRB02KT 9999 FEW060 SCT080 27/12 Q1013 NOSIG=
METAR LOWL 251250Z VRB02KT 9999 FEW055 27/13 Q1013 NOSIG=
METAR LOWS 251250Z 32007KT 280V360 9999 FEW060 26/12 Q1013 NOSIG=
METAR LOWW 251250Z VRB04KT 9999 FEW040 FEW050CB SCT130 BKN300 24/14 Q1014 NOSIG=
METAR LZIB 251230Z VRB02KT 9999 FEW040 BKN083 24/15 Q1014 NOSIG=
METAR COR LZKZ 251230Z VRB01KT 9999 FEW030CB 24/18 Q1014 NOSIG=
METAR LZPP 251230Z 22008KT 9999 SCT048 SCT090 25/15 Q1014=
METAR LZSL 251230Z 23006KT 160V290 9999 FEW056 FEW060TCU 28/14 Q1014=
METAR LZTT 251230Z 14006KT 090V220 9999 SCT060 24/16 Q1015 NOSIG=
METAR LZZI 251230Z 22004KT 150V280 9999 SCT045 27/14 Q1013=